Time;durP1;ratioP1;P1;durP2;ratioP2;P2;SDS_P1;SDS_P2;PMS_P1;PMS_P2;Temp;Humidity;BMP_temperature;BMP_pressure;BME280_temperature;BME280_humidity;BME280_pressure;Samples;Min_cycle;Max_cycle;Signal;HPM_P1;HPM_P2
2023/01/26 00:00:10;;;;;;;62.90;28.00;;;;;;;1.17;57.74;101954.06;688513;28;1096;-80
2023/01/26 00:00:30;;;;;;;61.25;27.35;;;;;;;1.20;58.06;101956.94;685905;28;1056;-80
2023/01/26 00:00:52;;;;;;;62.40;28.20;;;;;;;1.18;57.83;101952.41;685311;28;1267;-80
2023/01/26 00:01:16;;;;;;;62.83;28.33;;;;;;;1.21;57.98;101960.38;685760;28;1914;-79
2023/01/26 00:01:37;;;;;;;65.70;27.75;;;;;;;1.15;57.64;101952.16;688576;28;1370;-80
2023/01/26 00:01:57;;;;;;;66.70;28.23;;;;;;;1.16;57.61;101946.25;688536;28;981;-80
2023/01/26 00:02:18;;;;;;;67.85;28.40;;;;;;;1.17;58.18;101951.50;687527;28;1278;-80
2023/01/26 00:02:38;;;;;;;67.38;28.60;;;;;;;1.17;57.94;101950.63;688629;28;913;-80
2023/01/26 00:02:59;;;;;;;65.83;27.03;;;;;;;1.19;57.92;101949.06;685945;28;1034;-80
2023/01/26 00:03:20;;;;;;;64.15;27.55;;;;;;;1.17;57.89;101955.75;685916;28;1100;-80
2023/01/26 00:03:42;;;;;;;64.22;28.08;;;;;;;1.13;57.67;101938.25;685971;28;1277;-80
2023/01/26 00:04:02;;;;;;;64.65;29.27;;;;;;;1.16;57.82;101943.69;686270;28;1118;-80
2023/01/26 00:04:23;;;;;;;67.95;29.83;;;;;;;1.12;57.73;101928.75;685946;28;1304;-80
2023/01/26 00:04:44;;;;;;;66.15;29.05;;;;;;;1.14;57.86;101945.22;684614;28;1243;-80
2023/01/26 00:05:05;;;;;;;64.00;28.30;;;;;;;1.20;57.86;101953.44;683190;28;1225;-80
2023/01/26 00:05:25;;;;;;;63.35;28.15;;;;;;;1.12;57.98;101936.47;685888;28;1268;-79
2023/01/26 00:05:46;;;;;;;66.60;29.00;;;;;;;1.08;57.38;101927.56;686068;28;1130;-79
2023/01/26 00:06:09;;;;;;;73.15;30.27;;;;;;;1.12;58.08;101941.59;686054;28;1226;-80
2023/01/26 00:06:30;;;;;;;72.15;30.20;;;;;;;1.06;57.88;101932.63;686016;28;1052;-79
2023/01/26 00:06:50;;;;;;;69.47;30.30;;;;;;;1.03;57.96;101919.47;685854;28;858;-79
2023/01/26 00:07:11;;;;;;;68.53;30.63;;;;;;;1.04;57.85;101931.56;685977;28;1121;-80
2023/01/26 00:07:32;;;;;;;67.70;30.35;;;;;;;1.08;58.13;101923.34;686609;28;1238;-80
2023/01/26 00:07:53;;;;;;;66.00;29.98;;;;;;;1.29;57.42;101917.31;686556;28;1144;-80
2023/01/26 00:08:13;;;;;;;62.57;29.37;;;;;;;1.51;57.24;101938.03;688534;28;1200;-80
2023/01/26 00:08:39;;;;;;;64.40;29.35;;;;;;;1.48;57.25;101936.09;688595;28;941;-80
2023/01/26 00:09:00;;;;;;;65.90;29.45;;;;;;;1.54;56.95;101940.88;688482;28;1279;-79
2023/01/26 00:09:21;;;;;;;65.70;28.83;;;;;;;1.57;56.62;101930.81;685890;28;1404;-80
2023/01/26 00:09:41;;;;;;;67.45;29.05;;;;;;;1.68;56.86;101941.09;683226;28;1332;-80
2023/01/26 00:10:02;;;;;;;68.57;29.77;;;;;;;1.68;56.52;101931.72;688452;28;1164;-80
2023/01/26 00:10:23;;;;;;;73.43;31.00;;;;;;;1.69;56.66;101917.16;691534;28;826;-80
2023/01/26 00:10:49;;;;;;;69.40;30.00;;;;;;;1.71;56.53;101925.94;686041;28;760;-80
2023/01/26 00:11:11;;;;;;;70.20;29.95;;;;;;;1.66;56.31;101927.22;685722;28;1184;-80
2023/01/26 00:11:32;;;;;;;66.88;29.40;;;;;;;1.61;56.19;101925.19;691315;28;1241;-79
2023/01/26 00:11:52;;;;;;;69.00;29.80;;;;;;;1.60;56.27;101923.34;688615;28;1408;-79
2023/01/26 00:12:13;;;;;;;67.38;30.08;;;;;;;1.62;56.47;101921.84;685808;28;1158;-79
2023/01/26 00:12:33;;;;;;;73.70;30.57;;;;;;;1.65;56.44;101920.28;687158;28;966;-80
2023/01/26 00:12:54;;;;;;;75.33;30.80;;;;;;;1.70;56.04;101924.13;685900;28;1247;-80
2023/01/26 00:13:21;;;;;;;77.03;29.88;;;;;;;1.73;55.90;101930.44;683223;29;1169;-79
2023/01/26 00:13:42;;;;;;;72.85;29.70;;;;;;;1.72;56.08;101922.59;684314;28;1181;-80
2023/01/26 00:14:03;;;;;;;70.82;29.20;;;;;;;1.67;55.98;101918.72;686834;28;1044;-80
2023/01/26 00:14:23;;;;;;;68.53;28.33;;;;;;;1.74;56.15;101918.47;683268;28;1285;-79
2023/01/26 00:14:49;;;;;;;68.77;28.67;;;;;;;1.73;56.04;101920.16;683259;28;1109;-80
2023/01/26 00:15:10;;;;;;;66.95;30.38;;;;;;;1.74;55.93;101923.59;685078;28;1230;-80
2023/01/26 00:15:32;;;;;;;69.60;31.30;;;;;;;1.55;56.44;101916.03;685571;28;1166;-80
2023/01/26 00:15:52;;;;;;;70.50;30.20;;;;;;;1.67;55.89;101916.16;685810;28;1253;-80
2023/01/26 00:16:14;;;;;;;71.57;30.10;;;;;;;1.71;56.12;101913.06;683184;28;1060;-79
2023/01/26 00:16:34;;;;;;;71.07;30.60;;;;;;;1.79;56.02;101918.84;680602;29;962;-80
2023/01/26 00:16:55;;;;;;;68.73;31.33;;;;;;;1.79;56.00;101911.09;685726;28;1056;-80
2023/01/26 00:17:24;;;;;;;71.60;31.30;;;;;;;1.81;55.70;101913.03;688627;28;1218;-80
2023/01/26 00:17:45;;;;;;;72.30;30.70;;;;;;;1.81;55.41;101923.34;688664;28;1044;-80
2023/01/26 00:18:05;;;;;;;74.77;31.50;;;;;;;1.80;55.49;101910.34;690091;28;1054;-80
2023/01/26 00:18:26;;;;;;;75.10;31.85;;;;;;;1.79;55.91;101904.31;689988;28;1143;-79
2023/01/26 00:18:46;;;;;;;75.07;32.10;;;;;;;1.83;55.52;101919.22;687228;28;1113;-80
2023/01/26 00:19:07;;;;;;;70.20;31.58;;;;;;;1.84;55.66;101920.13;687232;28;1138;-80
2023/01/26 00:19:28;;;;;;;69.85;31.90;;;;;;;1.84;55.91;101918.44;683159;28;1136;-79
2023/01/26 00:19:49;;;;;;;67.53;30.90;;;;;;;1.74;55.92;101901.34;683231;28;1178;-80
2023/01/26 00:20:09;;;;;;;69.30;31.03;;;;;;;1.74;56.09;101906.50;683023;28;1227;-80
2023/01/26 00:20:30;;;;;;;68.63;30.15;;;;;;;1.77;56.08;101905.88;683388;29;1025;-80
2023/01/26 00:20:58;;;;;;;70.53;29.90;;;;;;;1.71;55.70;101901.09;683284;28;1246;-80
2023/01/26 00:21:20;;;;;;;67.13;28.23;;;;;;;1.77;55.58;101908.44;685777;28;1913;-79
2023/01/26 00:21:41;;;;;;;67.78;28.58;;;;;;;1.81;55.95;101913.03;688547;28;1187;-80
2023/01/26 00:22:01;;;;;;;70.07;29.37;;;;;;;1.75;55.69;101904.81;688471;28;1242;-79
2023/01/26 00:22:25;;;;;;;72.43;29.77;;;;;;;1.80;55.93;101911.25;683261;28;1288;-79
2023/01/26 00:22:46;;;;;;;74.60;30.27;;;;;;;1.76;55.47;101906.59;685989;28;1185;-80
2023/01/26 00:23:06;;;;;;;72.50;30.17;;;;;;;1.78;55.71;101910.22;683004;29;1126;-79
2023/01/26 00:23:29;;;;;;;73.47;30.13;;;;;;;1.82;55.56;101914.84;682389;28;1035;-79
2023/01/26 00:23:59;;;;;;;73.05;30.83;;;;;;;1.80;55.80;101912.91;685733;28;871;-80
2023/01/26 00:24:19;;;;;;;73.53;31.35;;;;;;;1.83;55.80;101911.47;688379;28;1342;-79
2023/01/26 00:24:40;;;;;;;75.82;31.17;;;;;;;1.74;55.76;101900.44;683265;29;1076;-79
2023/01/26 00:25:00;;;;;;;88.47;32.67;;;;;;;1.85;55.62;101915.09;683361;29;768;-80
2023/01/26 00:25:21;;;;;;;89.72;33.70;;;;;;;1.69;56.02;101907.78;685735;28;1253;-80
2023/01/26 00:25:42;;;;;;;87.95;34.17;;;;;;;1.57;56.20;101906.75;688506;28;1453;-80
2023/01/26 00:26:20;;;;;;;76.53;32.40;;;;;;;1.54;56.18;101922.88;688651;28;1122;-79
2023/01/26 00:26:40;;;;;;;83.03;32.90;;;;;;;1.65;56.41;101917.69;688465;28;1141;-79
2023/01/26 00:27:01;;;;;;;86.63;33.00;;;;;;;1.75;56.33;101917.69;688464;28;1258;-80
2023/01/26 00:27:21;;;;;;;82.93;32.47;;;;;;;1.72;55.89;101902.88;688655;28;802;-80
2023/01/26 00:27:42;;;;;;;80.73;31.63;;;;;;;1.69;55.84;101906.88;683245;28;1090;-80
2023/01/26 00:28:04;;;;;;;83.63;31.52;;;;;;;1.71;56.15;101902.78;685847;28;1323;-79
2023/01/26 00:28:26;;;;;;;83.17;31.50;;;;;;;1.70;56.10;101898.41;683333;29;1093;-80
2023/01/26 00:28:47;;;;;;;79.90;31.27;;;;;;;1.75;55.83;101907.38;680687;29;899;-79
2023/01/26 00:29:08;;;;;;;78.75;31.60;;;;;;;1.71;56.36;101895.06;683142;29;1234;-79
2023/01/26 00:29:28;;;;;;;80.13;31.77;;;;;;;1.48;55.92;101897.50;686659;28;1080;-80
2023/01/26 00:29:49;;;;;;;86.35;33.75;;;;;;;1.31;56.83;101898.69;686482;28;1163;-79
2023/01/26 00:30:10;;;;;;;85.43;34.13;;;;;;;1.26;56.97;101894.81;685771;28;1071;-79
2023/01/26 00:30:30;;;;;;;82.72;33.80;;;;;;;1.16;56.97;101895.69;685780;28;1153;-80
2023/01/26 00:30:51;;;;;;;79.18;32.45;;;;;;;1.16;57.37;101898.28;685905;28;1182;-80
2023/01/26 00:31:19;;;;;;;77.00;31.70;;;;;;;1.19;57.74;101898.56;683068;28;1214;-79
2023/01/26 00:31:40;;;;;;;78.18;31.98;;;;;;;1.24;57.59;101901.50;683140;29;1119;-80
2023/01/26 00:32:00;;;;;;;79.80;32.67;;;;;;;1.27;57.43;101895.72;683123;28;1267;-79
2023/01/26 00:32:21;;;;;;;78.35;32.35;;;;;;;1.22;57.47;101903.06;683271;28;1036;-80
2023/01/26 00:32:42;;;;;;;81.70;33.63;;;;;;;1.05;57.69;101889.66;685973;28;1210;-80
2023/01/26 00:33:03;;;;;;;82.72;33.70;;;;;;;1.05;58.00;101892.22;688420;28;1150;-80
2023/01/26 00:33:23;;;;;;;86.75;34.35;;;;;;;1.02;58.12;101904.81;685890;28;1139;-80
2023/01/26 00:33:44;;;;;;;82.00;34.07;;;;;;;0.94;57.89;101890.41;688743;28;776;-79
2023/01/26 00:34:05;;;;;;;81.47;33.50;;;;;;;0.92;58.25;101891.97;688453;28;1104;-80
2023/01/26 00:34:25;;;;;;;77.70;33.10;;;;;;;0.87;58.54;101883.88;688586;28;1317;-80
2023/01/26 00:34:46;;;;;;;82.63;32.53;;;;;;;0.88;58.28;101885.66;691285;28;1575;-79
2023/01/26 00:35:07;;;;;;;83.77;32.90;;;;;;;0.99;58.38;101888.25;688467;28;1427;-79
2023/01/26 00:35:30;;;;;;;87.25;33.10;;;;;;;1.06;58.41;101906.00;685793;28;1912;-79
2023/01/26 00:35:53;;;;;;;87.17;33.50;;;;;;;1.00;58.14;101890.94;683243;28;1133;-80
2023/01/26 00:36:14;;;;;;;88.25;33.63;;;;;;;1.16;58.34;101902.53;685925;28;973;-79
2023/01/26 00:36:36;;;;;;;88.05;34.28;;;;;;;1.15;57.87;101885.31;685763;28;1235;-80
2023/01/26 00:36:57;;;;;;;81.45;34.00;;;;;;;1.21;57.86;101891.84;685651;28;1003;-80
2023/01/26 00:37:18;;;;;;;80.28;33.30;;;;;;;1.29;57.74;101897.63;688504;28;1290;-79
2023/01/26 00:37:42;;;;;;;84.70;32.65;;;;;;;1.40;57.75;101901.09;688501;28;1340;-79
2023/01/26 00:38:03;;;;;;;86.20;33.40;;;;;;;1.32;57.38;101890.19;691148;28;1056;-80
2023/01/26 00:38:24;;;;;;;83.35;33.35;;;;;;;1.12;57.86;101891.09;683068;28;1237;-79
2023/01/26 00:38:45;;;;;;;82.28;33.67;;;;;;;1.34;58.07;101905.75;683369;29;788;-79
2023/01/26 00:39:05;;;;;;;80.07;33.67;;;;;;;1.42;57.61;101902.16;685754;28;1032;-80
2023/01/26 00:39:28;;;;;;;78.13;33.72;;;;;;;1.36;57.47;101887.09;685943;28;1041;-80
2023/01/26 00:39:48;;;;;;;80.43;34.20;;;;;;;1.37;57.40;101882.84;685967;28;887;-80
2023/01/26 00:40:10;;;;;;;84.00;33.07;;;;;;;1.19;57.67;101884.78;685797;28;1044;-80
2023/01/26 00:40:30;;;;;;;87.65;32.95;;;;;;;1.33;57.79;101894.56;683138;28;1277;-80
2023/01/26 00:40:51;;;;;;;82.13;32.30;;;;;;;1.38;57.67;101900.09;685812;28;1269;-80
2023/01/26 00:42:05;;;;;;;78.40;32.97;;;;;;;1.34;57.53;101877.47;688383;28;1911;-80
2023/01/26 00:42:05;;;;;;;87.90;33.75;;;;;;;1.59;57.35;101890.69;685990;28;1127;-80
2023/01/26 00:42:26;;;;;;;85.65;33.25;;;;;;;1.60;56.94;101882.19;685792;28;1123;-80
2023/01/26 00:42:46;;;;;;;76.93;31.40;;;;;;;1.64;57.03;101885.91;683295;29;1062;-80
2023/01/26 00:43:07;;;;;;;77.78;32.03;;;;;;;1.71;56.76;101884.75;684918;28;1247;-80
2023/01/26 00:43:28;;;;;;;77.40;31.75;;;;;;;1.65;56.78;101890.31;683256;29;1137;-80
2023/01/26 00:43:48;;;;;;;80.57;32.88;;;;;;;1.62;56.79;101890.03;685255;28;855;-79
2023/01/26 00:44:09;;;;;;;82.93;33.23;;;;;;;1.60;57.14;101881.31;688440;28;1201;-79
2023/01/26 00:44:29;;;;;;;84.80;33.88;;;;;;;1.62;56.99;101870.38;685777;28;1063;-79
2023/01/26 00:44:50;;;;;;;85.82;34.15;;;;;;;1.72;56.68;101881.41;686020;28;760;-80
2023/01/26 00:45:11;;;;;;;85.40;34.03;;;;;;;1.55;57.09;101870.63;682997;28;1191;-80
2023/01/26 00:45:34;;;;;;;87.13;34.60;;;;;;;1.46;57.07;101875.03;688437;28;1210;-79
2023/01/26 00:45:54;;;;;;;88.25;34.65;;;;;;;1.58;57.13;101877.72;685695;28;1130;-80
2023/01/26 00:46:15;;;;;;;88.85;34.42;;;;;;;1.59;57.50;101890.69;685859;28;1476;-79
2023/01/26 00:46:36;;;;;;;90.05;34.00;;;;;;;1.48;56.97;101874.34;683038;28;1141;-80
2023/01/26 00:46:58;;;;;;;91.80;33.50;;;;;;;1.59;57.15;101877.81;685646;28;1070;-80
2023/01/26 00:47:21;;;;;;;92.78;34.65;;;;;;;1.69;56.99;101875.97;683152;28;1069;-79
2023/01/26 00:47:43;;;;;;;90.47;34.60;;;;;;;1.68;56.96;101879.34;683245;29;1208;-80
2023/01/26 00:48:04;;;;;;;86.40;34.78;;;;;;;1.67;56.66;101868.16;682891;28;1203;-80
2023/01/26 00:48:25;;;;;;;82.70;34.22;;;;;;;1.59;57.13;101880.38;685629;28;1240;-79
2023/01/26 00:48:45;;;;;;;78.17;34.33;;;;;;;1.69;56.98;101881.13;685837;28;1073;-80
2023/01/26 00:49:06;;;;;;;79.55;34.05;;;;;;;1.65;56.91;101876.53;685765;28;1119;-80
2023/01/26 00:49:27;;;;;;;82.18;34.20;;;;;;;1.68;57.18;101874.19;683142;28;1016;-80
2023/01/26 00:49:47;;;;;;;85.50;33.73;;;;;;;1.70;56.41;101870.09;683111;29;1156;-80
2023/01/26 00:50:08;;;;;;;85.75;33.92;;;;;;;1.76;57.06;101878.28;683067;29;1014;-80
2023/01/26 00:50:29;;;;;;;83.53;34.10;;;;;;;1.73;56.54;101872.91;683075;28;1256;-80
2023/01/26 00:50:51;;;;;;;82.07;34.38;;;;;;;1.75;56.66;101876.50;685840;28;1146;-80
2023/01/26 00:51:11;;;;;;;89.43;35.30;;;;;;;1.80;56.56;101885.50;685739;28;1240;-80
2023/01/26 00:51:32;;;;;;;94.13;35.73;;;;;;;1.82;56.13;101876.22;685819;28;1110;-80
2023/01/26 00:51:52;;;;;;;93.50;36.13;;;;;;;1.81;56.60;101877.00;685741;28;1277;-80
2023/01/26 00:52:13;;;;;;;90.25;35.45;;;;;;;1.79;56.45;101878.56;683068;28;1360;-80
2023/01/26 00:52:34;;;;;;;85.90;34.80;;;;;;;1.83;56.66;101888.31;685749;28;941;-79
2023/01/26 00:52:55;;;;;;;83.53;33.20;;;;;;;1.83;56.44;101883.16;685842;28;1070;-79
2023/01/26 00:53:17;;;;;;;85.55;32.47;;;;;;;1.75;56.09;101879.97;683140;28;1092;-79
2023/01/26 00:53:39;;;;;;;88.32;33.03;;;;;;;1.86;56.62;101893.72;680401;28;1467;-80
2023/01/26 00:54:00;;;;;;;85.75;33.80;;;;;;;1.79;56.39;101881.13;683085;28;1185;-80
2023/01/26 00:54:20;;;;;;;82.20;33.93;;;;;;;1.80;56.53;101875.22;685657;28;1009;-79
2023/01/26 00:54:41;;;;;;;82.23;33.03;;;;;;;1.80;55.99;101880.34;688442;28;1120;-80
2023/01/26 00:55:02;;;;;;;86.32;33.38;;;;;;;1.79;56.33;101878.56;683038;29;1030;-80
2023/01/26 00:55:23;;;;;;;87.36;34.40;;;;;;;1.86;56.35;101883.44;685739;28;1193;-80
2023/01/26 00:55:44;;;;;;;86.28;35.42;;;;;;;1.86;56.33;101886.00;688531;28;1303;-80
2023/01/26 00:56:05;;;;;;;81.97;35.70;;;;;;;1.79;56.68;101878.56;688379;28;1112;-80
2023/01/26 00:56:27;;;;;;;84.05;35.70;;;;;;;1.78;56.61;101881.91;685837;28;1173;-80
2023/01/26 00:56:47;;;;;;;88.50;35.77;;;;;;;1.80;56.22;101880.34;682975;28;863;-79
2023/01/26 00:57:08;;;;;;;93.20;35.50;;;;;;;1.85;56.56;101883.31;682970;28;1202;-80
2023/01/26 00:57:29;;;;;;;99.65;36.38;;;;;;;1.83;56.56;101879.72;685768;28;931;-80
2023/01/26 00:57:50;;;;;;;97.38;35.00;;;;;;;1.81;55.97;101876.09;685991;28;839;-80
2023/01/26 00:58:11;;;;;;;91.78;34.15;;;;;;;1.90;56.07;101889.75;685601;28;1257;-79
2023/01/26 00:58:32;;;;;;;85.13;32.83;;;;;;;1.85;56.14;101884.22;685788;28;1271;-80
2023/01/26 00:58:53;;;;;;;85.40;34.13;;;;;;;1.88;56.11;101883.53;686201;28;1232;-79
2023/01/26 00:59:13;;;;;;;85.10;34.08;;;;;;;1.82;56.12;101878.81;685801;28;937;-80
2023/01/26 00:59:38;;;;;;;89.00;34.80;;;;;;;1.85;56.24;101883.31;685358;28;1127;-80
2023/01/26 00:59:58;;;;;;;86.65;34.70;;;;;;;1.82;55.92;101872.78;685646;28;1105;-80
2023/01/26 01:00:19;;;;;;;85.80;34.33;;;;;;;1.80;56.63;101871.72;685667;28;1120;-79
2023/01/26 01:00:39;;;;;;;83.03;34.30;;;;;;;1.80;56.61;101875.22;683143;28;1228;-80
2023/01/26 01:01:00;;;;;;;86.03;34.10;;;;;;;1.73;56.75;101875.47;685498;28;1201;-81
2023/01/26 01:01:20;;;;;;;86.40;33.83;;;;;;;1.51;56.92;101859.97;682679;29;1977;-82
2023/01/26 01:01:42;;;;;;;88.53;33.80;;;;;;;1.62;56.80;101870.38;685501;28;1446;-82
2023/01/26 01:02:03;;;;;;;85.97;33.75;;;;;;;1.60;56.73;101865.84;682945;29;1523;-82
2023/01/26 01:02:23;;;;;;;86.40;34.13;;;;;;;1.57;57.06;101876.78;685716;28;1252;-82
2023/01/26 01:02:44;;;;;;;82.47;33.83;;;;;;;1.61;56.65;101863.41;683244;29;800;-81
2023/01/26 01:03:05;;;;;;;80.27;33.07;;;;;;;1.62;56.64;101875.50;683001;28;1106;-82
2023/01/26 01:03:26;;;;;;;81.13;33.30;;;;;;;1.59;56.77;101861.50;683153;29;1107;-81
2023/01/26 01:03:46;;;;;;;79.60;32.90;;;;;;;1.71;57.26;101866.75;683263;29;1301;-82
2023/01/26 01:04:07;;;;;;;80.38;33.25;;;;;;;1.73;56.54;101867.75;680339;28;1145;-82
2023/01/26 01:04:30;;;;;;;84.20;33.65;;;;;;;1.75;56.73;101868.78;683100;28;1299;-81
2023/01/26 01:04:51;;;;;;;86.65;34.45;;;;;;;1.74;56.91;101860.19;683282;29;1290;-81
2023/01/26 01:05:12;;;;;;;87.07;34.50;;;;;;;1.67;56.83;101864.69;680532;29;994;-82
2023/01/26 01:05:34;;;;;;;88.32;34.53;;;;;;;1.73;56.73;101867.75;680566;29;990;-82
2023/01/26 01:05:54;;;;;;;88.00;33.90;;;;;;;1.76;56.85;101868.00;680477;29;1085;-81
2023/01/26 01:06:15;;;;;;;88.30;33.38;;;;;;;1.71;56.73;101848.72;683105;28;1341;-81
2023/01/26 01:06:35;;;;;;;88.70;33.87;;;;;;;1.70;56.78;101859.81;681024;29;1000;-82
2023/01/26 01:06:57;;;;;;;89.47;34.10;;;;;;;1.77;56.66;101867.25;680257;29;1022;-81
2023/01/26 01:07:18;;;;;;;89.53;34.70;;;;;;;1.71;57.13;101859.91;683083;29;1192;-82
2023/01/26 01:07:39;;;;;;;85.07;34.10;;;;;;;1.73;56.83;101875.47;682922;28;1292;-82
2023/01/26 01:08:00;;;;;;;85.85;34.80;;;;;;;1.84;56.90;101877.25;683080;29;1071;-81
2023/01/26 01:08:21;;;;;;;86.32;35.25;;;;;;;1.82;56.88;101870.19;683060;29;1099;-82
2023/01/26 01:08:41;;;;;;;85.80;34.30;;;;;;;1.80;56.71;101867.50;680507;29;1145;-82
2023/01/26 01:09:02;;;;;;;84.43;33.23;;;;;;;1.70;56.68;101865.81;688345;28;1230;-82
2023/01/26 01:09:23;;;;;;;89.43;33.45;;;;;;;1.75;56.93;101861.06;688258;28;1358;-82
2023/01/26 01:09:45;;;;;;;92.88;34.53;;;;;;;1.58;57.34;101865.72;685821;28;764;-81
2023/01/26 01:10:07;;;;;;;90.90;34.90;;;;;;;1.47;57.36;101853.66;682902;28;1147;-82
2023/01/26 01:10:28;;;;;;;84.35;34.55;;;;;;;1.44;57.34;101859.44;683125;29;1333;-82
2023/01/26 01:10:49;;;;;;;83.85;34.28;;;;;;;1.45;57.47;101871.53;680400;29;1303;-81
2023/01/26 01:11:10;;;;;;;81.37;33.73;;;;;;;1.43;57.62;101869.59;683043;28;1028;-82
2023/01/26 01:11:31;;;;;;;86.72;34.33;;;;;;;1.31;58.25;101867.81;680390;28;1202;-81
2023/01/26 01:11:51;;;;;;;88.15;34.80;;;;;;;1.25;58.47;101872.44;683134;29;1094;-82
2023/01/26 01:12:12;;;;;;;86.37;34.87;;;;;;;1.15;58.63;101862.16;683083;29;1310;-82
2023/01/26 01:12:33;;;;;;;79.40;33.47;;;;;;;1.08;58.61;101864.22;683118;29;1065;-82
2023/01/26 01:12:55;;;;;;;86.20;33.33;;;;;;;1.05;58.94;101857.91;680340;29;1176;-82
2023/01/26 01:13:17;;;;;;;92.15;34.63;;;;;;;1.01;59.05;101859.31;685693;28;1490;-82
2023/01/26 01:13:38;;;;;;;99.00;35.70;;;;;;;1.10;59.16;101858.31;685912;28;988;-82
2023/01/26 01:13:59;;;;;;;92.55;35.22;;;;;;;1.17;58.70;101858.94;685768;28;999;-82
2023/01/26 01:14:19;;;;;;;89.55;34.90;;;;;;;1.29;59.06;101871.91;683253;29;1101;-81
2023/01/26 01:14:40;;;;;;;85.20;35.20;;;;;;;1.25;58.91;101861.25;685720;28;1014;-81
2023/01/26 01:15:01;;;;;;;87.45;35.45;;;;;;;1.17;58.81;101847.75;682970;28;1152;-82
2023/01/26 01:15:21;;;;;;;87.10;34.92;;;;;;;1.15;58.67;101860.47;680575;29;1196;-82
2023/01/26 01:15:51;;;;;;;89.23;34.43;;;;;;;1.15;58.99;101859.59;683194;29;953;-82
2023/01/26 01:16:14;;;;;;;88.25;34.95;;;;;;;1.01;59.40;101855.84;683191;29;1080;-82
2023/01/26 01:16:35;;;;;;;85.53;34.78;;;;;;;0.94;59.38;101846.72;688430;28;952;-82
2023/01/26 01:16:56;;;;;;;82.75;34.80;;;;;;;1.10;59.20;101855.72;690932;28;876;-81
2023/01/26 01:17:16;;;;;;;82.88;35.17;;;;;;;1.15;59.08;101859.59;688307;28;1087;-82
2023/01/26 01:17:37;;;;;;;84.90;34.97;;;;;;;1.13;58.95;101850.81;691139;28;1041;-82
2023/01/26 01:17:58;;;;;;;86.45;35.60;;;;;;;1.23;59.57;101866.28;685680;28;1151;-81
2023/01/26 01:18:18;;;;;;;89.40;35.42;;;;;;;1.18;59.37;101857.28;685661;28;1105;-82
2023/01/26 01:18:41;;;;;;;90.70;35.45;;;;;;;1.23;59.19;101866.28;683198;28;1226;-81
2023/01/26 01:19:03;;;;;;;93.22;34.65;;;;;;;1.21;59.14;101854.94;682964;28;1054;-82
2023/01/26 01:19:23;;;;;;;93.32;34.05;;;;;;;1.24;59.22;101859.44;680444;29;1220;-82
2023/01/26 01:19:44;;;;;;;93.05;34.65;;;;;;;1.21;59.32;101849.78;683219;28;1342;-81
2023/01/26 01:20:08;;;;;;;85.82;34.05;;;;;;;1.25;59.13;101864.72;685778;28;1134;-82
2023/01/26 01:20:29;;;;;;;84.70;34.97;;;;;;;1.19;59.13;101861.63;685705;28;1274;-81
2023/01/26 01:20:49;;;;;;;86.97;35.25;;;;;;;1.03;59.35;101844.03;688528;28;1156;-81
2023/01/26 01:21:15;;;;;;;88.10;35.63;;;;;;;1.00;59.90;101854.97;688259;28;1906;-81
2023/01/26 01:21:36;;;;;;;86.82;34.50;;;;;;;0.89;60.07;101850.56;685837;28;1129;-82
2023/01/26 01:21:56;;;;;;;93.23;35.20;;;;;;;0.85;59.73;101844.25;683077;28;1098;-82
2023/01/26 01:22:17;;;;;;;88.30;34.05;;;;;;;0.96;59.95;101850.31;688469;28;1143;-82
2023/01/26 01:22:38;;;;;;;89.30;34.13;;;;;;;1.01;59.88;101851.63;688405;28;1062;-82
2023/01/26 01:22:59;;;;;;;81.17;33.37;;;;;;;0.94;59.96;101855.34;685668;28;1169;-82
2023/01/26 01:23:21;;;;;;;85.00;33.47;;;;;;;1.00;59.85;101849.81;682878;28;1271;-82
2023/01/26 01:23:42;;;;;;;88.43;34.67;;;;;;;1.04;59.85;101845.84;683029;28;1186;-82
2023/01/26 01:24:03;;;;;;;89.05;34.42;;;;;;;1.09;59.85;101859.97;682972;29;1818;-81
2023/01/26 01:24:24;;;;;;;85.02;35.18;;;;;;;1.05;59.69;101848.50;682963;28;1129;-81
2023/01/26 01:24:44;;;;;;;86.57;36.03;;;;;;;1.13;59.84;101845.69;685820;28;1130;-82
2023/01/26 01:25:05;;;;;;;87.97;35.83;;;;;;;1.19;59.97;101856.50;682439;29;1150;-82
2023/01/26 01:25:26;;;;;;;91.53;34.63;;;;;;;1.15;59.46;101857.03;683089;28;886;-82
2023/01/26 01:25:55;;;;;;;87.50;33.75;;;;;;;1.07;59.75;101849.56;685865;28;1121;-82
2023/01/26 01:26:15;;;;;;;90.22;35.08;;;;;;;1.05;59.53;101856.22;685739;28;1041;-82
2023/01/26 01:26:37;;;;;;;88.30;36.00;;;;;;;1.11;59.98;101857.53;683054;28;1141;-82
2023/01/26 01:26:57;;;;;;;93.63;35.92;;;;;;;1.04;60.12;101851.84;682843;29;997;-82
2023/01/26 01:27:18;;;;;;;90.10;35.80;;;;;;;1.10;60.08;101853.16;680419;28;1247;-82
2023/01/26 01:27:38;;;;;;;85.18;34.72;;;;;;;1.11;60.00;101849.81;680480;29;938;-82
2023/01/26 01:27:59;;;;;;;84.70;33.80;;;;;;;1.14;60.16;101858.69;680351;29;1050;-82
2023/01/26 01:28:20;;;;;;;86.18;33.53;;;;;;;1.14;59.84;101861.25;683084;29;1220;-82
2023/01/26 01:28:42;;;;;;;87.60;34.25;;;;;;;1.17;59.81;101864.06;682962;28;1245;-81
2023/01/26 01:29:03;;;;;;;90.85;35.17;;;;;;;1.20;59.89;101869.50;682738;29;1095;-82
2023/01/26 01:29:24;;;;;;;91.50;35.40;;;;;;;1.04;60.29;101863.84;685745;28;1175;-82
2023/01/26 01:29:44;;;;;;;92.97;35.40;;;;;;;0.95;60.07;101861.38;683095;28;1197;-81
2023/01/26 01:30:06;;;;;;;86.75;34.28;;;;;;;0.89;60.67;101868.56;680308;28;1129;-82
2023/01/26 01:30:27;;;;;;;83.57;33.70;;;;;;;0.95;60.30;101871.66;680403;29;1159;-82
2023/01/26 01:30:48;;;;;;;80.47;33.10;;;;;;;0.90;60.83;101857.53;680541;29;1374;-82
2023/01/26 01:31:12;;;;;;;85.13;33.80;;;;;;;0.87;60.61;101854.69;682903;28;1084;-82
2023/01/26 01:31:33;;;;;;;87.05;35.00;;;;;;;0.88;60.76;101866.75;680425;29;1274;-82
2023/01/26 01:31:54;;;;;;;90.78;36.42;;;;;;;0.88;60.84;101869.31;680377;29;1174;-82
2023/01/26 01:32:14;;;;;;;88.88;36.03;;;;;;;0.96;61.03;101868.31;680395;29;1040;-82
2023/01/26 01:32:35;;;;;;;89.10;35.10;;;;;;;0.94;60.75;101864.72;680472;29;993;-81
2023/01/26 01:32:56;;;;;;;88.93;34.60;;;;;;;0.97;61.01;101858.94;680405;28;1186;-82
2023/01/26 01:33:17;;;;;;;91.47;35.57;;;;;;;1.05;60.76;101853.66;680437;29;1014;-81
2023/01/26 01:33:38;;;;;;;91.32;35.33;;;;;;;1.14;60.61;101862.94;685738;28;1184;-82
2023/01/26 01:33:59;;;;;;;92.20;35.25;;;;;;;1.13;60.63;101855.97;682867;28;1077;-82
2023/01/26 01:34:20;;;;;;;87.03;33.83;;;;;;;1.18;60.33;101859.84;680253;28;1373;-82
2023/01/26 01:34:41;;;;;;;86.88;35.13;;;;;;;1.21;60.74;101861.00;680481;29;898;-82
2023/01/26 01:35:02;;;;;;;85.40;34.97;;;;;;;1.21;60.55;101860.09;685751;28;884;-82
2023/01/26 01:35:22;;;;;;;87.30;35.35;;;;;;;1.24;60.40;101850.06;685790;28;1238;-82
2023/01/26 01:35:43;;;;;;;85.80;34.00;;;;;;;1.27;60.67;101850.31;688439;28;1579;-81
2023/01/26 01:36:07;;;;;;;84.45;34.00;;;;;;;1.36;60.38;101869.09;688209;28;1306;-82
2023/01/26 01:36:30;;;;;;;82.95;33.58;;;;;;;1.29;60.18;101850.44;688361;28;1038;-82
2023/01/26 01:36:51;;;;;;;89.50;35.10;;;;;;;1.27;60.22;101855.47;688230;28;839;-82
2023/01/26 01:37:11;;;;;;;91.97;35.30;;;;;;;1.29;60.39;101864.19;685693;28;1425;-81
2023/01/26 01:37:33;;;;;;;91.40;34.70;;;;;;;1.18;60.00;101870.13;685687;28;1137;-82
2023/01/26 01:37:54;;;;;;;86.80;33.65;;;;;;;1.21;60.25;101852.38;688252;28;1101;-82
2023/01/26 01:38:14;;;;;;;86.22;32.78;;;;;;;1.26;60.49;101863.94;685689;28;1141;-82
2023/01/26 01:38:35;;;;;;;88.57;33.03;;;;;;;1.24;60.29;101862.03;680394;29;1178;-82
2023/01/26 01:38:56;;;;;;;88.38;33.45;;;;;;;1.29;60.20;101869.34;680283;29;1104;-82
2023/01/26 01:39:18;;;;;;;89.05;35.05;;;;;;;1.32;60.53;101864.47;680290;28;1159;-81
2023/01/26 01:39:38;;;;;;;86.55;35.67;;;;;;;1.16;60.69;101861.38;683050;29;1093;-82
2023/01/26 01:39:59;;;;;;;84.80;34.97;;;;;;;1.14;60.49;101862.94;683049;29;1121;-82
2023/01/26 01:40:19;;;;;;;88.03;35.42;;;;;;;1.15;60.81;101851.88;683005;29;1208;-82
2023/01/26 01:40:43;;;;;;;88.63;34.72;;;;;;;1.18;60.75;101849.56;685544;28;1204;-82
2023/01/26 01:41:04;;;;;;;91.20;35.17;;;;;;;1.14;60.65;101853.53;682927;28;1020;-82